sensor_id;sensor_type;location;lat;lon;timestamp;pressure;altitude;pressure_sealevel;temperature;humidity
28911;BME280;16028;42.642;23.310;2023-03-20T00:01:09;94313.06;;;6.01;75.81
28911;BME280;16028;42.642;23.310;2023-03-20T00:03:37;94310.94;;;5.95;76.43
28911;BME280;16028;42.642;23.310;2023-03-20T00:06:03;94310.94;;;5.95;76.60
28911;BME280;16028;42.642;23.310;2023-03-20T00:08:30;94306.22;;;5.89;76.80
28911;BME280;16028;42.642;23.310;2023-03-20T00:10:57;94305.63;;;5.85;77.05
28911;BME280;16028;42.642;23.310;2023-03-20T00:13:25;94306.66;;;5.83;76.81
28911;BME280;16028;42.642;23.310;2023-03-20T00:15:52;94310.06;;;5.83;76.78
28911;BME280;16028;42.642;23.310;2023-03-20T00:18:20;94303.09;;;5.84;76.94
28911;BME280;16028;42.642;23.310;2023-03-20T00:20:47;94296.41;;;5.81;76.85
28911;BME280;16028;42.642;23.310;2023-03-20T00:23:15;94305.22;;;5.79;77.71
28911;BME280;16028;42.642;23.310;2023-03-20T00:25:42;94297.22;;;5.71;77.80
28911;BME280;16028;42.642;23.310;2023-03-20T00:30:44;94297.22;;;5.71;77.50
28911;BME280;16028;42.642;23.310;2023-03-20T00:33:10;94298.00;;;5.71;76.99
28911;BME280;16028;42.642;23.310;2023-03-20T00:35:37;94301.66;;;5.69;77.28
28911;BME280;16028;42.642;23.310;2023-03-20T00:38:03;94279.38;;;5.68;77.35
28911;BME280;16028;42.642;23.310;2023-03-20T00:40:30;94292.16;;;5.69;77.38
28911;BME280;16028;42.642;23.310;2023-03-20T00:42:58;94292.28;;;5.68;77.31
28911;BME280;16028;42.642;23.310;2023-03-20T00:45:24;94285.94;;;5.72;77.05
28911;BME280;16028;42.642;23.310;2023-03-20T00:47:52;94287.00;;;5.69;77.57
28911;BME280;16028;42.642;23.310;2023-03-20T00:50:20;94292.16;;;5.69;77.09
28911;BME280;16028;42.642;23.310;2023-03-20T00:52:47;94288.13;;;5.65;77.11
28911;BME280;16028;42.642;23.310;2023-03-20T00:55:14;94291.78;;;5.63;77.29
28911;BME280;16028;42.642;23.310;2023-03-20T00:57:42;94284.97;;;5.62;77.23
28911;BME280;16028;42.642;23.310;2023-03-20T01:00:16;94280.75;;;5.61;77.27
28911;BME280;16028;42.642;23.310;2023-03-20T01:02:45;94280.97;;;5.58;77.33
28911;BME280;16028;42.642;23.310;2023-03-20T01:05:13;94286.47;;;5.53;78.01
28911;BME280;16028;42.642;23.310;2023-03-20T01:07:39;94283.28;;;5.50;78.49
28911;BME280;16028;42.642;23.310;2023-03-20T01:10:07;94277.50;;;5.46;78.19
28911;BME280;16028;42.642;23.310;2023-03-20T01:12:33;94275.16;;;5.43;78.35
28911;BME280;16028;42.642;23.310;2023-03-20T01:15:00;94274.44;;;5.41;78.63
28911;BME280;16028;42.642;23.310;2023-03-20T01:17:27;94265.19;;;5.39;78.95
28911;BME280;16028;42.642;23.310;2023-03-20T01:19:54;94261.19;;;5.34;79.37
28911;BME280;16028;42.642;23.310;2023-03-20T01:22:22;94261.25;;;5.33;79.39
28911;BME280;16028;42.642;23.310;2023-03-20T01:24:48;94262.94;;;5.34;79.20
28911;BME280;16028;42.642;23.310;2023-03-20T01:27:15;94262.94;;;5.34;79.21
28911;BME280;16028;42.642;23.310;2023-03-20T01:29:42;94265.50;;;5.34;79.74
28911;BME280;16028;42.642;23.310;2023-03-20T01:32:09;94262.09;;;5.33;79.46
28911;BME280;16028;42.642;23.310;2023-03-20T01:34:37;94269.22;;;5.30;79.57
28911;BME280;16028;42.642;23.310;2023-03-20T01:37:05;94264.19;;;5.28;79.15
28911;BME280;16028;42.642;23.310;2023-03-20T01:39:36;94274.50;;;5.28;79.45
28911;BME280;16028;42.642;23.310;2023-03-20T01:42:03;94271.00;;;5.29;79.10
28911;BME280;16028;42.642;23.310;2023-03-20T01:44:32;94271.00;;;5.29;78.56
28911;BME280;16028;42.642;23.310;2023-03-20T01:46:59;94271.41;;;5.23;79.57
28911;BME280;16028;42.642;23.310;2023-03-20T01:52:12;94277.84;;;5.18;79.81
28911;BME280;16028;42.642;23.310;2023-03-20T01:54:40;94284.03;;;5.15;79.70
28911;BME280;16028;42.642;23.310;2023-03-20T01:57:07;94282.00;;;5.08;80.77
28911;BME280;16028;42.642;23.310;2023-03-20T01:59:37;94280.38;;;5.07;80.49
28911;BME280;16028;42.642;23.310;2023-03-20T02:02:06;94279.53;;;5.06;80.40
28911;BME280;16028;42.642;23.310;2023-03-20T02:04:35;94278.22;;;5.01;81.05
28911;BME280;16028;42.642;23.310;2023-03-20T02:07:04;94281.59;;;5.01;80.80
28911;BME280;16028;42.642;23.310;2023-03-20T02:09:32;94268.00;;;4.99;80.95
28911;BME280;16028;42.642;23.310;2023-03-20T02:12:00;94275.25;;;4.94;81.25
28911;BME280;16028;42.642;23.310;2023-03-20T02:14:27;94261.53;;;4.94;81.10
28911;BME280;16028;42.642;23.310;2023-03-20T02:16:54;94270.19;;;4.93;81.32
28911;BME280;16028;42.642;23.310;2023-03-20T02:19:22;94270.31;;;4.91;82.06
28911;BME280;16028;42.642;23.310;2023-03-20T02:21:55;94266.69;;;4.94;81.41
28911;BME280;16028;42.642;23.310;2023-03-20T02:24:32;94268.22;;;4.96;81.13
28911;BME280;16028;42.642;23.310;2023-03-20T02:27:06;94268.63;;;5.03;80.86
28911;BME280;16028;42.642;23.310;2023-03-20T02:35:13;94274.53;;;4.92;81.52
28911;BME280;16028;42.642;23.310;2023-03-20T02:40:36;94276.63;;;4.87;81.48
28911;BME280;16028;42.642;23.310;2023-03-20T02:43:09;94267.84;;;4.90;81.50
28911;BME280;16028;42.642;23.310;2023-03-20T02:45:40;94271.13;;;4.92;81.35
28911;BME280;16028;42.642;23.310;2023-03-20T02:48:10;94265.97;;;4.92;81.21
28911;BME280;16028;42.642;23.310;2023-03-20T02:50:40;94264.94;;;4.94;81.06
28911;BME280;16028;42.642;23.310;2023-03-20T02:53:11;94257.31;;;4.93;81.35
28911;BME280;16028;42.642;23.310;2023-03-20T02:55:45;94253.91;;;4.92;81.63
28911;BME280;16028;42.642;23.310;2023-03-20T02:58:13;94263.28;;;4.93;81.10
28911;BME280;16028;42.642;23.310;2023-03-20T03:00:43;94260.22;;;4.88;81.31
28911;BME280;16028;42.642;23.310;2023-03-20T03:03:12;94257.03;;;4.85;81.25
28911;BME280;16028;42.642;23.310;2023-03-20T03:05:41;94251.97;;;4.83;81.49
28911;BME280;16028;42.642;23.310;2023-03-20T03:08:09;94258.66;;;4.86;81.29
28911;BME280;16028;42.642;23.310;2023-03-20T03:10:39;94258.78;;;4.84;81.23
28911;BME280;16028;42.642;23.310;2023-03-20T03:13:10;94261.78;;;4.78;82.42
28911;BME280;16028;42.642;23.310;2023-03-20T03:15:40;94257.66;;;4.75;82.39
28911;BME280;16028;42.642;23.310;2023-03-20T03:18:09;94249.22;;;4.73;82.17
28911;BME280;16028;42.642;23.310;2023-03-20T03:20:38;94251.38;;;4.79;82.20
28911;BME280;16028;42.642;23.310;2023-03-20T03:23:05;94254.06;;;4.78;82.07
28911;BME280;16028;42.642;23.310;2023-03-20T03:25:33;94252.72;;;4.72;82.47
28911;BME280;16028;42.642;23.310;2023-03-20T03:28:02;94252.84;;;4.71;82.33
28911;BME280;16028;42.642;23.310;2023-03-20T03:30:31;94262.22;;;4.72;82.58
28911;BME280;16028;42.642;23.310;2023-03-20T03:33:07;94254.50;;;4.72;82.31
28911;BME280;16028;42.642;23.310;2023-03-20T03:35:35;94257.06;;;4.72;82.08
28911;BME280;16028;42.642;23.310;2023-03-20T03:38:02;94255.50;;;4.69;82.32
28911;BME280;16028;42.642;23.310;2023-03-20T03:40:33;94263.34;;;4.68;82.39
28911;BME280;16028;42.642;23.310;2023-03-20T03:43:02;94256.97;;;4.61;83.02
28911;BME280;16028;42.642;23.310;2023-03-20T03:45:34;94253.56;;;4.60;82.83
28911;BME280;16028;42.642;23.310;2023-03-20T03:48:04;94251.41;;;4.67;82.52
28911;BME280;16028;42.642;23.310;2023-03-20T03:50:33;94259.56;;;4.61;83.45
28911;BME280;16028;42.642;23.310;2023-03-20T03:53:03;94259.16;;;4.54;83.18
28911;BME280;16028;42.642;23.310;2023-03-20T03:55:33;94249.47;;;4.58;83.10
28911;BME280;16028;42.642;23.310;2023-03-20T03:58:02;94252.66;;;4.61;82.27
28911;BME280;16028;42.642;23.310;2023-03-20T04:00:29;94252.03;;;4.58;82.40
28911;BME280;16028;42.642;23.310;2023-03-20T04:02:59;94248.53;;;4.59;82.27
28911;BME280;16028;42.642;23.310;2023-03-20T04:05:26;94249.47;;;4.58;82.11
28911;BME280;16028;42.642;23.310;2023-03-20T04:07:57;94246.28;;;4.54;82.21
28911;BME280;16028;42.642;23.310;2023-03-20T04:10:23;94242.03;;;4.53;82.09
28911;BME280;16028;42.642;23.310;2023-03-20T04:12:50;94244.75;;;4.52;81.75
28911;BME280;16028;42.642;23.310;2023-03-20T04:15:17;94242.88;;;4.54;82.25
28911;BME280;16028;42.642;23.310;2023-03-20T04:17:44;94237.94;;;4.51;82.71
28911;BME280;16028;42.642;23.310;2023-03-20T04:20:12;94236.88;;;4.53;82.65
28911;BME280;16028;42.642;23.310;2023-03-20T04:22:40;94230.72;;;4.56;82.35
28911;BME280;16028;42.642;23.310;2023-03-20T04:25:07;94235.88;;;4.56;81.52
28911;BME280;16028;42.642;23.310;2023-03-20T04:27:34;94235.06;;;4.55;81.68
28911;BME280;16028;42.642;23.310;2023-03-20T04:30:01;94236.31;;;4.50;82.01
28911;BME280;16028;42.642;23.310;2023-03-20T04:32:27;94231.16;;;4.50;81.97
28911;BME280;16028;42.642;23.310;2023-03-20T04:34:54;94222.91;;;4.45;82.55
28911;BME280;16028;42.642;23.310;2023-03-20T04:37:22;94234.88;;;4.46;82.32
28911;BME280;16028;42.642;23.310;2023-03-20T04:39:48;94226.94;;;4.49;81.73
28911;BME280;16028;42.642;23.310;2023-03-20T04:42:15;94237.44;;;4.46;82.52
28911;BME280;16028;42.642;23.310;2023-03-20T04:44:41;94244.94;;;4.49;82.36
28911;BME280;16028;42.642;23.310;2023-03-20T04:47:08;94244.41;;;4.56;82.59
28911;BME280;16028;42.642;23.310;2023-03-20T04:49:34;94251.16;;;4.46;82.75
28911;BME280;16028;42.642;23.310;2023-03-20T04:52:01;94257.84;;;4.49;83.20
28911;BME280;16028;42.642;23.310;2023-03-20T04:54:29;94259.88;;;4.44;84.19
28911;BME280;16028;42.642;23.310;2023-03-20T04:56:55;94267.59;;;4.44;84.81
28911;BME280;16028;42.642;23.310;2023-03-20T04:59:22;94268.44;;;4.44;84.68
28911;BME280;16028;42.642;23.310;2023-03-20T05:01:48;94267.31;;;4.48;84.82
28911;BME280;16028;42.642;23.310;2023-03-20T05:04:15;94273.69;;;4.55;84.61
28911;BME280;16028;42.642;23.310;2023-03-20T05:06:42;94268.00;;;4.63;84.60
28911;BME280;16028;42.642;23.310;2023-03-20T05:09:12;94263.84;;;4.73;84.75
28911;BME280;16028;42.642;23.310;2023-03-20T05:11:40;94267.03;;;4.76;84.79
28911;BME280;16028;42.642;23.310;2023-03-20T05:14:06;94265.91;;;4.80;84.38
28911;BME280;16028;42.642;23.310;2023-03-20T05:16:33;94264.66;;;4.86;84.67
28911;BME280;16028;42.642;23.310;2023-03-20T05:19:00;94273.69;;;4.92;84.35
28911;BME280;16028;42.642;23.310;2023-03-20T05:21:27;94275.97;;;4.96;84.14
28911;BME280;16028;42.642;23.310;2023-03-20T05:23:53;94279.53;;;5.06;84.08
28911;BME280;16028;42.642;23.310;2023-03-20T05:26:20;94286.00;;;5.12;83.97
28911;BME280;16028;42.642;23.310;2023-03-20T05:28:48;94285.47;;;5.19;84.28
28911;BME280;16028;42.642;23.310;2023-03-20T05:31:14;94285.56;;;5.18;83.80
28911;BME280;16028;42.642;23.310;2023-03-20T05:33:41;94279.97;;;5.24;83.49
28911;BME280;16028;42.642;23.310;2023-03-20T05:36:07;94284.59;;;5.31;83.10
28911;BME280;16028;42.642;23.310;2023-03-20T05:38:34;94276.53;;;5.36;82.94
28911;BME280;16028;42.642;23.310;2023-03-20T05:41:01;94276.91;;;5.43;82.74
28911;BME280;16028;42.642;23.310;2023-03-20T05:43:28;94280.69;;;5.50;82.59
28911;BME280;16028;42.642;23.310;2023-03-20T05:45:57;94280.16;;;5.57;83.42
28911;BME280;16028;42.642;23.310;2023-03-20T05:48:23;94283.22;;;5.62;82.79
28911;BME280;16028;42.642;23.310;2023-03-20T05:50:50;94280.78;;;5.72;83.50
28911;BME280;16028;42.642;23.310;2023-03-20T05:53:16;94281.16;;;5.78;83.68
28911;BME280;16028;42.642;23.310;2023-03-20T05:55:43;94293.53;;;5.86;83.89
28911;BME280;16028;42.642;23.310;2023-03-20T05:58:10;94287.78;;;5.94;83.13
28911;BME280;16028;42.642;23.310;2023-03-20T06:00:36;94282.06;;;6.01;83.17
28911;BME280;16028;42.642;23.310;2023-03-20T06:03:04;94280.69;;;6.08;83.41
28911;BME280;16028;42.642;23.310;2023-03-20T06:05:32;94274.84;;;6.17;83.25
28911;BME280;16028;42.642;23.310;2023-03-20T06:07:58;94276.84;;;6.25;83.21
28911;BME280;16028;42.642;23.310;2023-03-20T06:10:25;94272.84;;;6.32;82.10
28911;BME280;16028;42.642;23.310;2023-03-20T06:12:51;94270.53;;;6.40;82.18
28911;BME280;16028;42.642;23.310;2023-03-20T06:15:18;94270.19;;;6.56;79.42
28911;BME280;16028;42.642;23.310;2023-03-20T06:17:44;94281.44;;;6.88;77.02
28911;BME280;16028;42.642;23.310;2023-03-20T06:20:12;94277.94;;;6.89;76.56
28911;BME280;16028;42.642;23.310;2023-03-20T06:22:39;94284.69;;;7.12;74.38
28911;BME280;16028;42.642;23.310;2023-03-20T06:25:06;94287.03;;;7.15;73.97
28911;BME280;16028;42.642;23.310;2023-03-20T06:27:33;94289.28;;;7.09;73.65
28911;BME280;16028;42.642;23.310;2023-03-20T06:29:59;94297.63;;;7.12;74.50
28911;BME280;16028;42.642;23.310;2023-03-20T06:32:26;94291.28;;;7.05;75.20
28911;BME280;16028;42.642;23.310;2023-03-20T06:34:52;94291.88;;;7.09;76.23
28911;BME280;16028;42.642;23.310;2023-03-20T06:37:20;94279.78;;;7.09;76.51
28911;BME280;16028;42.642;23.310;2023-03-20T06:39:47;94286.34;;;7.13;76.13
28911;BME280;16028;42.642;23.310;2023-03-20T06:42:14;94288.59;;;7.18;75.69
28911;BME280;16028;42.642;23.310;2023-03-20T06:44:40;94289.16;;;7.21;76.35
28911;BME280;16028;42.642;23.310;2023-03-20T06:47:07;94286.91;;;7.28;76.58
28911;BME280;16028;42.642;23.310;2023-03-20T06:49:33;94292.88;;;7.39;75.58
28911;BME280;16028;42.642;23.310;2023-03-20T06:52:00;94289.69;;;7.47;75.45
28911;BME280;16028;42.642;23.310;2023-03-20T06:54:28;94292.56;;;7.65;72.24
28911;BME280;16028;42.642;23.310;2023-03-20T06:56:55;94288.22;;;7.65;72.76
28911;BME280;16028;42.642;23.310;2023-03-20T06:59:21;94285.38;;;7.68;73.32
28911;BME280;16028;42.642;23.310;2023-03-20T07:01:48;94276.66;;;7.69;74.25
28911;BME280;16028;42.642;23.310;2023-03-20T07:04:16;94276.72;;;7.79;74.51
28911;BME280;16028;42.642;23.310;2023-03-20T07:06:43;94271.59;;;7.99;72.08
28911;BME280;16028;42.642;23.310;2023-03-20T07:09:12;94263.41;;;8.04;72.88
28911;BME280;16028;42.642;23.310;2023-03-20T07:11:40;94271.41;;;8.12;72.97
28911;BME280;16028;42.642;23.310;2023-03-20T07:14:06;94267.41;;;8.49;70.89
28911;BME280;16028;42.642;23.310;2023-03-20T07:16:33;94270.53;;;8.43;72.09
28911;BME280;16028;42.642;23.310;2023-03-20T07:19:00;94277.47;;;8.43;72.65
28911;BME280;16028;42.642;23.310;2023-03-20T07:21:26;94268.59;;;8.66;72.00
28911;BME280;16028;42.642;23.310;2023-03-20T07:23:53;94271.53;;;8.82;69.68
28911;BME280;16028;42.642;23.310;2023-03-20T07:26:19;94262.66;;;8.85;70.33
28911;BME280;16028;42.642;23.310;2023-03-20T07:28:47;94261.72;;;8.86;71.59
28911;BME280;16028;42.642;23.310;2023-03-20T07:31:17;94264.59;;;8.92;71.04
28911;BME280;16028;42.642;23.310;2023-03-20T07:33:44;94267.50;;;8.99;70.81
28911;BME280;16028;42.642;23.310;2023-03-20T07:36:11;94265.22;;;9.15;69.21
28911;BME280;16028;42.642;23.310;2023-03-20T07:38:37;94273.31;;;9.22;69.95
28911;BME280;16028;42.642;23.310;2023-03-20T07:41:04;94271.72;;;9.59;66.41
28911;BME280;16028;42.642;23.310;2023-03-20T07:43:30;94272.94;;;9.65;65.62
28911;BME280;16028;42.642;23.310;2023-03-20T07:46:00;94265.16;;;9.65;65.94
28911;BME280;16028;42.642;23.310;2023-03-20T07:48:26;94268.03;;;9.62;65.90
28911;BME280;16028;42.642;23.310;2023-03-20T07:50:53;94275.28;;;9.68;64.85
28911;BME280;16028;42.642;23.310;2023-03-20T07:53:20;94268.56;;;9.55;66.28
28911;BME280;16028;42.642;23.310;2023-03-20T07:55:46;94269.94;;;9.60;66.78
28911;BME280;16028;42.642;23.310;2023-03-20T07:58:13;94279.78;;;9.66;68.03
28911;BME280;16028;42.642;23.310;2023-03-20T08:00:39;94267.22;;;9.90;65.18
28911;BME280;16028;42.642;23.310;2023-03-20T08:03:08;94275.28;;;9.87;66.70
28911;BME280;16028;42.642;23.310;2023-03-20T08:05:35;94263.13;;;9.87;65.82
28911;BME280;16028;42.642;23.310;2023-03-20T08:08:03;94264.34;;;9.93;65.94
28911;BME280;16028;42.642;23.310;2023-03-20T08:10:29;94262.16;;;9.98;65.32
28911;BME280;16028;42.642;23.310;2023-03-20T08:12:56;94263.78;;;10.08;64.77
28911;BME280;16028;42.642;23.310;2023-03-20T08:15:22;94264.22;;;10.23;63.51
28911;BME280;16028;42.642;23.310;2023-03-20T08:17:49;94268.00;;;10.38;61.86
28911;BME280;16028;42.642;23.310;2023-03-20T08:20:17;94258.53;;;10.56;59.96
28911;BME280;16028;42.642;23.310;2023-03-20T08:22:44;94266.03;;;10.59;58.64
28911;BME280;16028;42.642;23.310;2023-03-20T08:25:10;94263.84;;;10.65;57.72
28911;BME280;16028;42.642;23.310;2023-03-20T08:27:37;94268.91;;;10.56;58.69
28911;BME280;16028;42.642;23.310;2023-03-20T08:30:04;94277.84;;;10.44;60.75
28911;BME280;16028;42.642;23.310;2023-03-20T08:32:31;94272.44;;;10.75;57.65
28911;BME280;16028;42.642;23.310;2023-03-20T08:34:57;94273.53;;;10.72;56.45
28911;BME280;16028;42.642;23.310;2023-03-20T08:37:25;94267.22;;;10.84;56.02
28911;BME280;16028;42.642;23.310;2023-03-20T08:39:52;94279.78;;;10.89;57.27
28911;BME280;16028;42.642;23.310;2023-03-20T08:42:18;94275.31;;;11.08;57.13
28911;BME280;16028;42.642;23.310;2023-03-20T08:44:45;94267.97;;;11.04;58.22
28911;BME280;16028;42.642;23.310;2023-03-20T08:47:13;94268.28;;;11.19;58.80
28911;BME280;16028;42.642;23.310;2023-03-20T08:49:40;94261.94;;;11.03;60.02
28911;BME280;16028;42.642;23.310;2023-03-20T08:52:07;94264.38;;;11.05;60.93
28911;BME280;16028;42.642;23.310;2023-03-20T08:54:38;94253.38;;;11.11;61.15
28911;BME280;16028;42.642;23.310;2023-03-20T08:57:04;94261.88;;;11.13;59.89
28911;BME280;16028;42.642;23.310;2023-03-20T08:59:33;94260.59;;;11.44;57.19
28911;BME280;16028;42.642;23.310;2023-03-20T09:02:00;94263.56;;;11.77;55.14
28911;BME280;16028;42.642;23.310;2023-03-20T09:04:27;94264.28;;;11.69;55.20
28911;BME280;16028;42.642;23.310;2023-03-20T09:06:53;94255.59;;;11.78;55.82
28911;BME280;16028;42.642;23.310;2023-03-20T09:09:20;94253.75;;;11.71;56.96
28911;BME280;16028;42.642;23.310;2023-03-20T09:11:54;94250.47;;;11.86;55.85
28911;BME280;16028;42.642;23.310;2023-03-20T09:14:22;94248.84;;;12.03;55.71
28911;BME280;16028;42.642;23.310;2023-03-20T09:16:49;94244.31;;;12.31;54.88
28911;BME280;16028;42.642;23.310;2023-03-20T09:19:15;94244.31;;;12.31;55.31
28911;BME280;16028;42.642;23.310;2023-03-20T09:21:42;94242.31;;;12.25;55.09
28911;BME280;16028;42.642;23.310;2023-03-20T09:24:09;94240.56;;;12.33;55.16
28911;BME280;16028;42.642;23.310;2023-03-20T09:26:36;94238.47;;;12.37;55.84
28911;BME280;16028;42.642;23.310;2023-03-20T09:29:04;94236.31;;;12.32;56.99
28911;BME280;16028;42.642;23.310;2023-03-20T09:31:31;94241.00;;;12.29;57.21
28911;BME280;16028;42.642;23.310;2023-03-20T09:33:58;94232.88;;;12.32;57.21
28911;BME280;16028;42.642;23.310;2023-03-20T09:36:24;94226.31;;;12.45;54.29
28911;BME280;16028;42.642;23.310;2023-03-20T09:38:51;94227.13;;;12.71;53.23
28911;BME280;16028;42.642;23.310;2023-03-20T09:41:18;94226.56;;;12.86;51.84
28911;BME280;16028;42.642;23.310;2023-03-20T09:43:53;94223.38;;;12.74;52.18
28911;BME280;16028;42.642;23.310;2023-03-20T09:46:27;94221.59;;;12.74;54.32
28911;BME280;16028;42.642;23.310;2023-03-20T09:48:58;94213.31;;;12.79;54.73
28911;BME280;16028;42.642;23.310;2023-03-20T09:51:29;94203.09;;;13.02;52.70
28911;BME280;16028;42.642;23.310;2023-03-20T09:53:58;94197.41;;;13.06;52.46
28911;BME280;16028;42.642;23.310;2023-03-20T09:56:29;94191.75;;;13.11;53.60
28911;BME280;16028;42.642;23.310;2023-03-20T09:58:57;94180.38;;;13.28;51.55
28911;BME280;16028;42.642;23.310;2023-03-20T10:01:25;94176.50;;;13.48;53.54
28911;BME280;16028;42.642;23.310;2023-03-20T10:03:54;94169.81;;;13.62;51.56
28911;BME280;16028;42.642;23.310;2023-03-20T10:06:22;94170.63;;;13.70;50.74
28911;BME280;16028;42.642;23.310;2023-03-20T10:08:49;94162.97;;;13.77;49.98
28911;BME280;16028;42.642;23.310;2023-03-20T10:11:21;94152.66;;;13.67;50.54
28911;BME280;16028;42.642;23.310;2023-03-20T10:13:58;94154.81;;;13.72;50.90
28911;BME280;16028;42.642;23.310;2023-03-20T10:16:33;94158.06;;;13.82;48.99
28911;BME280;16028;42.642;23.310;2023-03-20T10:19:08;94149.88;;;13.93;50.23
28911;BME280;16028;42.642;23.310;2023-03-20T10:21:41;94154.75;;;14.28;48.38
28911;BME280;16028;42.642;23.310;2023-03-20T10:24:10;94145.28;;;14.44;48.02
28911;BME280;16028;42.642;23.310;2023-03-20T10:26:43;94142.31;;;14.47;47.74
28911;BME280;16028;42.642;23.310;2023-03-20T10:29:13;94145.75;;;14.47;48.56
28911;BME280;16028;42.642;23.310;2023-03-20T10:31:44;94149.50;;;14.53;49.09
28911;BME280;16028;42.642;23.310;2023-03-20T10:34:22;94142.91;;;14.65;47.60
28911;BME280;16028;42.642;23.310;2023-03-20T10:36:57;94137.00;;;14.71;47.39
28911;BME280;16028;42.642;23.310;2023-03-20T10:39:32;94130.91;;;14.87;47.21
28911;BME280;16028;42.642;23.310;2023-03-20T10:42:02;94125.78;;;14.93;47.13
28911;BME280;16028;42.642;23.310;2023-03-20T10:44:30;94129.53;;;14.91;47.16
28911;BME280;16028;42.642;23.310;2023-03-20T10:46:58;94133.66;;;14.93;47.03
28911;BME280;16028;42.642;23.310;2023-03-20T10:49:29;94119.22;;;14.97;47.85
28911;BME280;16028;42.642;23.310;2023-03-20T10:51:59;94119.09;;;15.21;45.76
28911;BME280;16028;42.642;23.310;2023-03-20T10:54:27;94116.16;;;15.47;45.39
28911;BME280;16028;42.642;23.310;2023-03-20T10:56:55;94107.63;;;15.53;45.49
28911;BME280;16028;42.642;23.310;2023-03-20T10:59:23;94114.03;;;15.43;46.43
28911;BME280;16028;42.642;23.310;2023-03-20T11:01:50;94103.19;;;15.46;45.79
28911;BME280;16028;42.642;23.310;2023-03-20T11:04:16;94109.81;;;15.64;44.40
28911;BME280;16028;42.642;23.310;2023-03-20T11:06:45;94101.28;;;15.85;43.15
28911;BME280;16028;42.642;23.310;2023-03-20T11:09:15;94092.50;;;15.78;43.70
28911;BME280;16028;42.642;23.310;2023-03-20T11:11:44;94086.50;;;16.07;42.47
28911;BME280;16028;42.642;23.310;2023-03-20T11:14:15;94085.97;;;16.11;41.93
28911;BME280;16028;42.642;23.310;2023-03-20T11:16:42;94080.38;;;16.14;42.28
28911;BME280;16028;42.642;23.310;2023-03-20T11:19:12;94080.78;;;16.18;46.73
28911;BME280;16028;42.642;23.310;2023-03-20T11:21:45;94081.16;;;16.15;46.83
28911;BME280;16028;42.642;23.310;2023-03-20T11:24:19;94080.38;;;16.29;48.10
28911;BME280;16028;42.642;23.310;2023-03-20T11:26:47;94071.88;;;16.56;42.72
28911;BME280;16028;42.642;23.310;2023-03-20T11:29:15;94071.13;;;16.77;42.96
28911;BME280;16028;42.642;23.310;2023-03-20T11:31:45;94055.47;;;16.83;41.63
28911;BME280;16028;42.642;23.310;2023-03-20T11:34:19;94068.41;;;16.85;41.04
28911;BME280;16028;42.642;23.310;2023-03-20T11:36:54;94055.81;;;16.80;44.84
28911;BME280;16028;42.642;23.310;2023-03-20T11:39:21;94048.56;;;16.82;43.15
28911;BME280;16028;42.642;23.310;2023-03-20T11:41:49;94045.09;;;16.97;44.77
28911;BME280;16028;42.642;23.310;2023-03-20T11:44:21;94043.78;;;17.07;41.56
28911;BME280;16028;42.642;23.310;2023-03-20T11:46:53;94034.22;;;17.21;41.09
28911;BME280;16028;42.642;23.310;2023-03-20T11:49:21;94022.19;;;17.33;39.89
28911;BME280;16028;42.642;23.310;2023-03-20T11:51:50;94017.97;;;17.32;38.51
28911;BME280;16028;42.642;23.310;2023-03-20T11:54:19;94022.66;;;17.15;42.06
28911;BME280;16028;42.642;23.310;2023-03-20T11:56:50;94017.84;;;17.19;41.31
28911;BME280;16028;42.642;23.310;2023-03-20T11:59:17;94014.16;;;17.56;41.27
28911;BME280;16028;42.642;23.310;2023-03-20T12:01:45;94009.25;;;17.74;40.95
28911;BME280;16028;42.642;23.310;2023-03-20T12:04:14;94005.53;;;17.89;36.92
28911;BME280;16028;42.642;23.310;2023-03-20T12:06:45;94004.28;;;17.85;38.33
28911;BME280;16028;42.642;23.310;2023-03-20T12:09:22;93999.28;;;17.97;36.67
28911;BME280;16028;42.642;23.310;2023-03-20T12:11:51;93995.09;;;18.03;35.65
28911;BME280;16028;42.642;23.310;2023-03-20T12:14:22;93995.84;;;17.96;36.38
28911;BME280;16028;42.642;23.310;2023-03-20T12:16:51;93986.47;;;17.87;37.73
28911;BME280;16028;42.642;23.310;2023-03-20T12:19:19;93990.22;;;18.00;34.74
28911;BME280;16028;42.642;23.310;2023-03-20T12:21:49;93991.03;;;18.07;34.79
28911;BME280;16028;42.642;23.310;2023-03-20T12:24:23;93987.03;;;18.11;34.86
28911;BME280;16028;42.642;23.310;2023-03-20T12:26:53;93983.78;;;18.09;34.86
28911;BME280;16028;42.642;23.310;2023-03-20T12:29:22;93988.97;;;17.95;36.00
28911;BME280;16028;42.642;23.310;2023-03-20T12:31:52;93982.09;;;18.01;38.06
28911;BME280;16028;42.642;23.310;2023-03-20T12:34:21;93978.75;;;18.14;36.70
28911;BME280;16028;42.642;23.310;2023-03-20T12:36:49;93980.28;;;18.36;35.87
28911;BME280;16028;42.642;23.310;2023-03-20T12:39:17;93978.06;;;18.39;35.58
28911;BME280;16028;42.642;23.310;2023-03-20T12:41:51;93964.19;;;18.59;33.68
28911;BME280;16028;42.642;23.310;2023-03-20T12:44:27;93968.25;;;18.61;37.65
28911;BME280;16028;42.642;23.310;2023-03-20T12:46:57;93965.50;;;18.95;33.58
28911;BME280;16028;42.642;23.310;2023-03-20T12:49:28;93964.34;;;19.05;32.99
28911;BME280;16028;42.642;23.310;2023-03-20T12:52:02;93951.56;;;19.01;33.82
28911;BME280;16028;42.642;23.310;2023-03-20T12:54:36;93949.72;;;19.09;32.37
28911;BME280;16028;42.642;23.310;2023-03-20T12:57:08;93958.22;;;18.91;33.17
28911;BME280;16028;42.642;23.310;2023-03-20T12:59:41;93949.72;;;18.89;32.68
28911;BME280;16028;42.642;23.310;2023-03-20T13:02:14;93947.44;;;18.86;37.34
28911;BME280;16028;42.642;23.310;2023-03-20T13:04:46;93939.59;;;19.12;32.74
28911;BME280;16028;42.642;23.310;2023-03-20T13:07:18;93941.59;;;18.97;33.50
28911;BME280;16028;42.642;23.310;2023-03-20T13:10:01;93935.50;;;18.90;33.89
28911;BME280;16028;42.642;23.310;2023-03-20T13:12:34;93934.31;;;19.06;37.58
28911;BME280;16028;42.642;23.310;2023-03-20T13:15:06;93938.78;;;19.31;36.21